sensor_id;sensor_type;location;lat;lon;timestamp;pressure;altitude;pressure_sealevel;temperature;humidity
7940;BME280;4015;48.888;9.226;2023-10-09T00:01:43;158741.31;;;13.92;92.10
7940;BME280;4015;48.888;9.226;2023-10-09T00:04:12;158742.59;;;13.93;91.90
7940;BME280;4015;48.888;9.226;2023-10-09T00:06:39;158747.69;;;13.95;91.66
7940;BME280;4015;48.888;9.226;2023-10-09T00:09:08;158716.97;;;13.83;92.11
7940;BME280;4015;48.888;9.226;2023-10-09T00:11:50;158719.56;;;13.84;92.36
7940;BME280;4015;48.888;9.226;2023-10-09T00:14:25;158700.34;;;13.76;92.58
7940;BME280;4015;48.888;9.226;2023-10-09T00:16:50;158697.78;;;13.75;92.72
7940;BME280;4015;48.888;9.226;2023-10-09T00:19:26;158687.59;;;13.71;92.82
7940;BME280;4015;48.888;9.226;2023-10-09T00:21:58;158699.06;;;13.75;92.89
7940;BME280;4015;48.888;9.226;2023-10-09T00:24:31;158728.50;;;13.87;92.19
7940;BME280;4015;48.888;9.226;2023-10-09T00:26:57;158700.34;;;13.76;92.85
7940;BME280;4015;48.888;9.226;2023-10-09T00:29:36;158699.06;;;13.75;93.00
7940;BME280;4015;48.888;9.226;2023-10-09T00:32:08;158676.03;;;13.66;93.47
7940;BME280;4015;48.888;9.226;2023-10-09T00:34:51;158681.16;;;13.68;93.22
7940;BME280;4015;48.888;9.226;2023-10-09T00:37:17;158686.31;;;13.70;93.14
7940;BME280;4015;48.888;9.226;2023-10-09T00:39:47;158677.31;;;13.67;93.63
7940;BME280;4015;48.888;9.226;2023-10-09T00:42:14;158677.31;;;13.67;93.30
7940;BME280;4015;48.888;9.226;2023-10-09T00:44:50;158667.06;;;13.63;93.43
7940;BME280;4015;48.888;9.226;2023-10-09T00:47:16;158681.16;;;13.68;93.04
7940;BME280;4015;48.888;9.226;2023-10-09T00:49:57;158686.31;;;13.70;92.42
7940;BME280;4015;48.888;9.226;2023-10-09T00:52:34;158701.66;;;13.76;91.82
7940;BME280;4015;48.888;9.226;2023-10-09T00:55:10;158661.97;;;13.61;93.03
7940;BME280;4015;48.888;9.226;2023-10-09T00:57:41;158655.59;;;13.58;92.70
7940;BME280;4015;48.888;9.226;2023-10-09T01:00:07;158688.84;;;13.71;92.37
7940;BME280;4015;48.888;9.226;2023-10-09T01:03:04;158688.84;;;13.71;92.59
7940;BME280;4015;48.888;9.226;2023-10-09T01:05:46;158670.94;;;13.64;92.10
7940;BME280;4015;48.888;9.226;2023-10-09T01:08:26;158672.22;;;13.65;92.69
7940;BME280;4015;48.888;9.226;2023-10-09T01:16:22;158701.66;;;13.76;92.58
7940;BME280;4015;48.888;9.226;2023-10-09T01:18:53;158696.50;;;13.74;92.71
7940;BME280;4015;48.888;9.226;2023-10-09T01:21:22;158687.59;;;13.71;92.77
7940;BME280;4015;48.888;9.226;2023-10-09T01:23:50;158687.59;;;13.71;92.69
7940;BME280;4015;48.888;9.226;2023-10-09T01:26:38;158699.06;;;13.75;92.50
7940;BME280;4015;48.888;9.226;2023-10-09T01:29:10;158711.88;;;13.81;92.84
7940;BME280;4015;48.888;9.226;2023-10-09T01:34:32;158742.59;;;13.93;91.82
7940;BME280;4015;48.888;9.226;2023-10-09T01:37:07;158763.06;;;14.01;91.72
7940;BME280;4015;48.888;9.226;2023-10-09T01:39:58;158783.56;;;14.09;91.35
7940;BME280;4015;48.888;9.226;2023-10-09T01:42:25;158806.59;;;14.18;90.64
7940;BME280;4015;48.888;9.226;2023-10-09T01:45:00;158805.31;;;14.18;90.84
7940;BME280;4015;48.888;9.226;2023-10-09T01:47:44;158813.03;;;14.21;90.53
7940;BME280;4015;48.888;9.226;2023-10-09T01:50:17;158766.94;;;14.02;90.61
7940;BME280;4015;48.888;9.226;2023-10-09T01:52:47;158775.88;;;14.06;90.65
7940;BME280;4015;48.888;9.226;2023-10-09T01:55:13;158768.22;;;14.03;90.69
7940;BME280;4015;48.888;9.226;2023-10-09T01:57:52;158784.84;;;14.10;90.86
7940;BME280;4015;48.888;9.226;2023-10-09T02:00:18;158765.66;;;14.02;91.28
7940;BME280;4015;48.888;9.226;2023-10-09T02:02:49;158783.56;;;14.09;90.75
7940;BME280;4015;48.888;9.226;2023-10-09T02:05:15;158766.94;;;14.02;91.21
7940;BME280;4015;48.888;9.226;2023-10-09T02:07:42;158697.78;;;13.75;91.78
7940;BME280;4015;48.888;9.226;2023-10-09T02:10:17;158706.75;;;13.79;92.22
7940;BME280;4015;48.888;9.226;2023-10-09T02:13:06;158699.06;;;13.75;91.96
7940;BME280;4015;48.888;9.226;2023-10-09T02:15:33;158718.31;;;13.83;92.15
7940;BME280;4015;48.888;9.226;2023-10-09T02:18:08;158743.88;;;13.93;91.66
7940;BME280;4015;48.888;9.226;2023-10-09T02:20:46;158736.22;;;13.90;91.60
7940;BME280;4015;48.888;9.226;2023-10-09T02:23:12;158714.41;;;13.82;91.78
7940;BME280;4015;48.888;9.226;2023-10-09T02:25:49;158718.31;;;13.83;91.63
7940;BME280;4015;48.888;9.226;2023-10-09T02:28:18;158713.16;;;13.81;91.95
7940;BME280;4015;48.888;9.226;2023-10-09T02:30:45;158743.88;;;13.93;91.32
7940;BME280;4015;48.888;9.226;2023-10-09T02:33:17;158741.31;;;13.92;91.04
7940;BME280;4015;48.888;9.226;2023-10-09T02:35:58;158727.22;;;13.87;91.57
7940;BME280;4015;48.888;9.226;2023-10-09T02:38:30;158720.84;;;13.84;91.47
7940;BME280;4015;48.888;9.226;2023-10-09T02:40:58;158728.50;;;13.87;91.34
7940;BME280;4015;48.888;9.226;2023-10-09T02:43:31;158734.94;;;13.90;91.40
7940;BME280;4015;48.888;9.226;2023-10-09T02:46:11;158766.94;;;14.02;91.08
7940;BME280;4015;48.888;9.226;2023-10-09T02:48:45;158761.78;;;14.00;90.84
7940;BME280;4015;48.888;9.226;2023-10-09T02:51:23;158755.41;;;13.98;90.69
7940;BME280;4015;48.888;9.226;2023-10-09T02:53:55;158756.69;;;13.98;90.63
7940;BME280;4015;48.888;9.226;2023-10-09T02:56:22;158727.22;;;13.87;91.19
7940;BME280;4015;48.888;9.226;2023-10-09T02:59:08;158740.03;;;13.92;90.97
7940;BME280;4015;48.888;9.226;2023-10-09T03:01:34;158741.31;;;13.92;90.82
7940;BME280;4015;48.888;9.226;2023-10-09T03:04:03;158742.59;;;13.93;90.71
7940;BME280;4015;48.888;9.226;2023-10-09T03:06:31;158743.88;;;13.93;90.46
7940;BME280;4015;48.888;9.226;2023-10-09T03:08:58;158750.31;;;13.96;90.43
7940;BME280;4015;48.888;9.226;2023-10-09T03:11:23;158742.59;;;13.93;90.41
7940;BME280;4015;48.888;9.226;2023-10-09T03:13:52;158760.50;;;14.00;89.99
7940;BME280;4015;48.888;9.226;2023-10-09T03:16:18;158765.66;;;14.02;89.83
7940;BME280;4015;48.888;9.226;2023-10-09T03:18:51;158731.06;;;13.88;90.22
7940;BME280;4015;48.888;9.226;2023-10-09T03:21:16;158740.03;;;13.92;90.33
7940;BME280;4015;48.888;9.226;2023-10-09T03:23:43;158747.69;;;13.95;90.38
7940;BME280;4015;48.888;9.226;2023-10-09T03:26:09;158732.34;;;13.89;90.33
7940;BME280;4015;48.888;9.226;2023-10-09T03:28:35;158751.56;;;13.96;89.95
7940;BME280;4015;48.888;9.226;2023-10-09T03:31:01;158764.34;;;14.01;89.91
7940;BME280;4015;48.888;9.226;2023-10-09T03:33:28;158747.69;;;13.95;89.70
7940;BME280;4015;48.888;9.226;2023-10-09T03:35:59;158773.31;;;14.05;89.21
7940;BME280;4015;48.888;9.226;2023-10-09T03:38:24;158756.69;;;13.98;89.13
7940;BME280;4015;48.888;9.226;2023-10-09T03:40:49;158782.31;;;14.09;88.76
7940;BME280;4015;48.888;9.226;2023-10-09T03:43:15;158756.69;;;13.98;88.68
7940;BME280;4015;48.888;9.226;2023-10-09T03:45:40;158772.03;;;14.04;88.63
7940;BME280;4015;48.888;9.226;2023-10-09T03:48:19;158742.59;;;13.93;88.94
7940;BME280;4015;48.888;9.226;2023-10-09T03:50:51;158781.03;;;14.08;88.17
7940;BME280;4015;48.888;9.226;2023-10-09T03:53:37;158786.13;;;14.10;88.14
7940;BME280;4015;48.888;9.226;2023-10-09T03:56:07;158809.16;;;14.19;87.80
7940;BME280;4015;48.888;9.226;2023-10-09T03:58:56;158804.03;;;14.17;88.27
7940;BME280;4015;48.888;9.226;2023-10-09T04:01:21;158798.94;;;14.15;88.01
7940;BME280;4015;48.888;9.226;2023-10-09T04:03:51;158814.31;;;14.21;87.77
7940;BME280;4015;48.888;9.226;2023-10-09T04:06:28;158789.97;;;14.12;87.76
7940;BME280;4015;48.888;9.226;2023-10-09T04:09:00;158791.22;;;14.12;87.03
7940;BME280;4015;48.888;9.226;2023-10-09T04:11:39;158797.66;;;14.15;87.61
7940;BME280;4015;48.888;9.226;2023-10-09T04:14:08;158788.69;;;14.11;87.54
7940;BME280;4015;48.888;9.226;2023-10-09T04:16:37;158778.41;;;14.07;87.35
7940;BME280;4015;48.888;9.226;2023-10-09T04:19:16;158745.16;;;13.94;87.51
7940;BME280;4015;48.888;9.226;2023-10-09T04:21:47;158747.69;;;13.95;87.78
7940;BME280;4015;48.888;9.226;2023-10-09T04:24:13;158765.66;;;14.02;87.73
7940;BME280;4015;48.888;9.226;2023-10-09T04:26:43;158737.50;;;13.91;88.26
7940;BME280;4015;48.888;9.226;2023-10-09T04:29:10;158761.78;;;14.00;87.68
7940;BME280;4015;48.888;9.226;2023-10-09T04:31:46;158738.75;;;13.91;88.26
7940;BME280;4015;48.888;9.226;2023-10-09T04:34:17;158779.69;;;14.08;87.43
7940;BME280;4015;48.888;9.226;2023-10-09T04:36:55;158756.69;;;13.98;87.85
7940;BME280;4015;48.888;9.226;2023-10-09T04:39:42;158746.41;;;13.94;87.83
7940;BME280;4015;48.888;9.226;2023-10-09T04:42:14;158725.97;;;13.86;88.39
7940;BME280;4015;48.888;9.226;2023-10-09T04:44:46;158719.56;;;13.84;88.14
7940;BME280;4015;48.888;9.226;2023-10-09T04:47:32;158742.59;;;13.93;87.70
7940;BME280;4015;48.888;9.226;2023-10-09T04:50:11;158741.31;;;13.92;88.16
7940;BME280;4015;48.888;9.226;2023-10-09T04:52:37;158747.69;;;13.95;87.75
7940;BME280;4015;48.888;9.226;2023-10-09T04:55:03;158751.56;;;13.96;86.88
7940;BME280;4015;48.888;9.226;2023-10-09T05:00:05;158727.22;;;13.87;87.84
7940;BME280;4015;48.888;9.226;2023-10-09T05:02:47;158772.03;;;14.04;87.21
7940;BME280;4015;48.888;9.226;2023-10-09T05:05:20;158766.94;;;14.02;87.13
7940;BME280;4015;48.888;9.226;2023-10-09T05:08:04;158742.59;;;13.93;87.40
7940;BME280;4015;48.888;9.226;2023-10-09T05:10:50;158720.84;;;13.84;87.60
7940;BME280;4015;48.888;9.226;2023-10-09T05:13:37;158747.69;;;13.95;86.91
7940;BME280;4015;48.888;9.226;2023-10-09T05:16:15;158716.97;;;13.83;87.80
7940;BME280;4015;48.888;9.226;2023-10-09T05:18:48;158704.22;;;13.77;87.67
7940;BME280;4015;48.888;9.226;2023-10-09T05:21:38;158720.84;;;13.84;87.32
7940;BME280;4015;48.888;9.226;2023-10-09T05:24:07;158705.50;;;13.78;87.84
7940;BME280;4015;48.888;9.226;2023-10-09T05:26:43;158702.94;;;13.77;88.47
7940;BME280;4015;48.888;9.226;2023-10-09T05:32:05;158715.69;;;13.82;87.45
7940;BME280;4015;48.888;9.226;2023-10-09T05:34:41;158740.03;;;13.92;87.84
7940;BME280;4015;48.888;9.226;2023-10-09T05:37:29;158733.66;;;13.89;87.81
7940;BME280;4015;48.888;9.226;2023-10-09T05:45:12;158749.03;;;13.95;87.47
7940;BME280;4015;48.888;9.226;2023-10-09T05:47:53;158784.84;;;14.10;86.87
7940;BME280;4015;48.888;9.226;2023-10-09T05:52:44;158756.69;;;13.98;87.38
7940;BME280;4015;48.888;9.226;2023-10-09T05:55:16;158781.03;;;14.08;87.01
7940;BME280;4015;48.888;9.226;2023-10-09T05:57:45;158770.75;;;14.04;86.43
7940;BME280;4015;48.888;9.226;2023-10-09T06:00:29;158779.69;;;14.08;85.44
7940;BME280;4015;48.888;9.226;2023-10-09T06:03:13;158782.31;;;14.09;85.87
7940;BME280;4015;48.888;9.226;2023-10-09T06:05:51;158786.13;;;14.10;86.04
7940;BME280;4015;48.888;9.226;2023-10-09T06:08:30;158796.38;;;14.14;85.69
7940;BME280;4015;48.888;9.226;2023-10-09T06:11:08;158811.69;;;14.20;85.87
7940;BME280;4015;48.888;9.226;2023-10-09T06:13:53;158819.41;;;14.23;86.22
7940;BME280;4015;48.888;9.226;2023-10-09T06:16:28;158828.41;;;14.27;86.07
7940;BME280;4015;48.888;9.226;2023-10-09T06:19:26;158855.25;;;14.38;84.75
7940;BME280;4015;48.888;9.226;2023-10-09T06:21:59;158879.66;;;14.47;83.80
7940;BME280;4015;48.888;9.226;2023-10-09T06:24:36;158897.56;;;14.54;83.33
7940;BME280;4015;48.888;9.226;2023-10-09T06:27:16;158943.66;;;14.73;82.95
7940;BME280;4015;48.888;9.226;2023-10-09T06:30:05;158964.16;;;14.81;82.52
7940;BME280;4015;48.888;9.226;2023-10-09T06:32:49;158956.50;;;14.78;82.75
7940;BME280;4015;48.888;9.226;2023-10-09T06:35:16;158978.25;;;14.87;82.35
7940;BME280;4015;48.888;9.226;2023-10-09T06:40:30;158976.97;;;14.86;81.68
7940;BME280;4015;48.888;9.226;2023-10-09T06:43:22;158984.63;;;14.89;81.47
7940;BME280;4015;48.888;9.226;2023-10-09T06:45:52;158971.84;;;14.84;82.20
7940;BME280;4015;48.888;9.226;2023-10-09T06:48:24;159016.66;;;15.02;82.14
7940;BME280;4015;48.888;9.226;2023-10-09T06:51:10;159046.13;;;15.14;81.94
7940;BME280;4015;48.888;9.226;2023-10-09T06:53:57;159096.06;;;15.33;81.89
7940;BME280;4015;48.888;9.226;2023-10-09T06:56:31;159043.56;;;15.13;82.99
7940;BME280;4015;48.888;9.226;2023-10-09T06:58:57;159067.91;;;15.22;82.23
7940;BME280;4015;48.888;9.226;2023-10-09T07:01:26;159062.75;;;15.20;81.97
7940;BME280;4015;48.888;9.226;2023-10-09T07:04:07;159060.22;;;15.19;82.86
7940;BME280;4015;48.888;9.226;2023-10-09T07:06:47;159055.09;;;15.17;81.07
7940;BME280;4015;48.888;9.226;2023-10-09T07:09:14;159073.03;;;15.24;81.31
7940;BME280;4015;48.888;9.226;2023-10-09T07:11:44;159106.34;;;15.37;82.04
7940;BME280;4015;48.888;9.226;2023-10-09T07:14:15;159121.72;;;15.44;83.02
7940;BME280;4015;48.888;9.226;2023-10-09T07:16:56;159111.44;;;15.39;82.61
7940;BME280;4015;48.888;9.226;2023-10-09T07:19:40;159116.59;;;15.42;82.90
7940;BME280;4015;48.888;9.226;2023-10-09T07:22:05;159065.38;;;15.21;84.17
7940;BME280;4015;48.888;9.226;2023-10-09T07:24:41;159053.81;;;15.17;83.32
7940;BME280;4015;48.888;9.226;2023-10-09T07:27:16;159078.13;;;15.26;82.38
7940;BME280;4015;48.888;9.226;2023-10-09T07:29:41;159102.50;;;15.36;82.08
7940;BME280;4015;48.888;9.226;2023-10-09T07:32:16;159119.16;;;15.43;82.44
7940;BME280;4015;48.888;9.226;2023-10-09T07:34:49;159124.25;;;15.45;82.71
7940;BME280;4015;48.888;9.226;2023-10-09T07:37:23;159155.03;;;15.57;83.34
7940;BME280;4015;48.888;9.226;2023-10-09T07:39:50;159167.88;;;15.62;83.18
7940;BME280;4015;48.888;9.226;2023-10-09T07:42:23;159219.13;;;15.82;81.89
7940;BME280;4015;48.888;9.226;2023-10-09T07:44:59;159253.72;;;15.96;82.18
7940;BME280;4015;48.888;9.226;2023-10-09T07:47:36;159257.59;;;15.98;82.61
7940;BME280;4015;48.888;9.226;2023-10-09T07:50:34;159312.69;;;16.19;81.98
7940;BME280;4015;48.888;9.226;2023-10-09T07:53:09;159311.41;;;16.19;81.90
7940;BME280;4015;48.888;9.226;2023-10-09T07:55:46;159322.97;;;16.24;81.59
7940;BME280;4015;48.888;9.226;2023-10-09T07:58:23;159380.63;;;16.46;78.50
7940;BME280;4015;48.888;9.226;2023-10-09T08:00:57;159388.34;;;16.50;79.53
7940;BME280;4015;48.888;9.226;2023-10-09T08:03:32;159349.91;;;16.34;80.73
7940;BME280;4015;48.888;9.226;2023-10-09T08:06:00;159449.94;;;16.74;79.41
7940;BME280;4015;48.888;9.226;2023-10-09T08:08:44;159407.56;;;16.57;77.87
7940;BME280;4015;48.888;9.226;2023-10-09T08:11:32;159451.22;;;16.75;78.70
7940;BME280;4015;48.888;9.226;2023-10-09T08:14:16;159475.56;;;16.84;78.55
7940;BME280;4015;48.888;9.226;2023-10-09T08:16:49;159526.88;;;17.05;77.01
7940;BME280;4015;48.888;9.226;2023-10-09T08:19:17;159562.78;;;17.19;76.49
7940;BME280;4015;48.888;9.226;2023-10-09T08:22:00;159553.78;;;17.15;76.25
7940;BME280;4015;48.888;9.226;2023-10-09T08:24:43;159573.06;;;17.23;77.36
7940;BME280;4015;48.888;9.226;2023-10-09T08:27:17;159616.63;;;17.40;77.45
7940;BME280;4015;48.888;9.226;2023-10-09T08:30:04;159661.53;;;17.58;77.69
7940;BME280;4015;48.888;9.226;2023-10-09T08:32:54;159716.75;;;17.80;77.27
7940;BME280;4015;48.888;9.226;2023-10-09T08:35:45;159757.78;;;17.96;76.09
7940;BME280;4015;48.888;9.226;2023-10-09T08:38:14;159797.59;;;18.12;76.12
7940;BME280;4015;48.888;9.226;2023-10-09T08:40:43;159815.56;;;18.19;76.45
7940;BME280;4015;48.888;9.226;2023-10-09T08:43:21;159778.34;;;18.04;75.88
7940;BME280;4015;48.888;9.226;2023-10-09T08:45:53;159730.88;;;17.86;74.57
7940;BME280;4015;48.888;9.226;2023-10-09T08:48:19;159732.16;;;17.86;75.08
7940;BME280;4015;48.888;9.226;2023-10-09T08:50:48;159774.47;;;18.03;75.94
7940;BME280;4015;48.888;9.226;2023-10-09T08:53:15;159807.81;;;18.16;76.05
7940;BME280;4015;48.888;9.226;2023-10-09T08:55:44;159813.00;;;18.18;76.21
7940;BME280;4015;48.888;9.226;2023-10-09T08:58:11;159815.56;;;18.19;77.12
7940;BME280;4015;48.888;9.226;2023-10-09T09:00:50;159837.34;;;18.28;76.17
7940;BME280;4015;48.888;9.226;2023-10-09T09:03:17;159897.69;;;18.52;75.40
7940;BME280;4015;48.888;9.226;2023-10-09T09:05:48;159900.25;;;18.53;73.95
7940;BME280;4015;48.888;9.226;2023-10-09T09:08:24;159877.16;;;18.44;73.62
7940;BME280;4015;48.888;9.226;2023-10-09T09:11:00;159879.72;;;18.45;73.81
7940;BME280;4015;48.888;9.226;2023-10-09T09:14:11;159941.38;;;18.69;73.76
7940;BME280;4015;48.888;9.226;2023-10-09T09:16:43;160029.94;;;19.04;73.24
7940;BME280;4015;48.888;9.226;2023-10-09T09:19:13;160019.69;;;19.00;73.58
7940;BME280;4015;48.888;9.226;2023-10-09T09:21:48;160035.09;;;19.06;69.50
7940;BME280;4015;48.888;9.226;2023-10-09T09:24:14;160094.19;;;19.30;71.39
7940;BME280;4015;48.888;9.226;2023-10-09T09:27:00;160108.25;;;19.35;72.07
7940;BME280;4015;48.888;9.226;2023-10-09T09:32:02;160231.59;;;19.84;70.72
7940;BME280;4015;48.888;9.226;2023-10-09T09:34:47;160293.25;;;20.09;70.16
7940;BME280;4015;48.888;9.226;2023-10-09T09:37:24;160282.97;;;20.05;69.02
7940;BME280;4015;48.888;9.226;2023-10-09T09:39:55;160208.50;;;19.75;69.33
7940;BME280;4015;48.888;9.226;2023-10-09T09:42:22;160262.44;;;19.97;71.30
7940;BME280;4015;48.888;9.226;2023-10-09T09:44:53;160297.09;;;20.10;71.48
7940;BME280;4015;48.888;9.226;2023-10-09T09:47:19;160405.09;;;20.53;70.71
7940;BME280;4015;48.888;9.226;2023-10-09T09:49:55;160460.38;;;20.75;70.45
7940;BME280;4015;48.888;9.226;2023-10-09T09:52:36;160551.56;;;21.11;70.01
7940;BME280;4015;48.888;9.226;2023-10-09T09:55:06;160612.03;;;21.35;66.74
7940;BME280;4015;48.888;9.226;2023-10-09T09:57:40;160654.47;;;21.52;66.83
7940;BME280;4015;48.888;9.226;2023-10-09T10:00:08;160713.63;;;21.75;66.22
7940;BME280;4015;48.888;9.226;2023-10-09T10:02:54;160794.63;;;22.07;66.61
7940;BME280;4015;48.888;9.226;2023-10-09T10:05:24;160803.66;;;22.11;64.95
7940;BME280;4015;48.888;9.226;2023-10-09T10:07:56;160803.66;;;22.11;64.83
7940;BME280;4015;48.888;9.226;2023-10-09T10:10:35;160806.22;;;22.12;65.16
7940;BME280;4015;48.888;9.226;2023-10-09T10:13:03;160785.63;;;22.04;66.37
7940;BME280;4015;48.888;9.226;2023-10-09T10:15:57;160790.75;;;22.06;63.20
7940;BME280;4015;48.888;9.226;2023-10-09T10:18:30;160837.09;;;22.24;64.77
7940;BME280;4015;48.888;9.226;2023-10-09T10:23:56;160919.44;;;22.57;60.72
7940;BME280;4015;48.888;9.226;2023-10-09T10:26:31;160951.59;;;22.70;62.47
7940;BME280;4015;48.888;9.226;2023-10-09T10:32:02;161033.97;;;23.02;60.67
7940;BME280;4015;48.888;9.226;2023-10-09T10:34:52;161081.56;;;23.21;62.82
7940;BME280;4015;48.888;9.226;2023-10-09T10:37:41;161055.84;;;23.11;62.18
7940;BME280;4015;48.888;9.226;2023-10-09T10:40:24;161077.72;;;23.20;61.31
7940;BME280;4015;48.888;9.226;2023-10-09T10:43:15;161100.88;;;23.29;62.10
7940;BME280;4015;48.888;9.226;2023-10-09T10:46:07;161072.56;;;23.18;60.80
7940;BME280;4015;48.888;9.226;2023-10-09T10:48:53;161050.69;;;23.09;63.68
7940;BME280;4015;48.888;9.226;2023-10-09T10:51:25;161045.56;;;23.07;62.54
7940;BME280;4015;48.888;9.226;2023-10-09T10:54:00;161049.41;;;23.08;62.60
7940;BME280;4015;48.888;9.226;2023-10-09T10:56:46;161041.69;;;23.05;64.73
7940;BME280;4015;48.888;9.226;2023-10-09T10:59:16;161015.97;;;22.95;64.10
7940;BME280;4015;48.888;9.226;2023-10-09T11:01:49;161018.53;;;22.96;65.55
7940;BME280;4015;48.888;9.226;2023-10-09T11:04:21;161037.81;;;23.04;65.84
7940;BME280;4015;48.888;9.226;2023-10-09T11:06:53;161071.28;;;23.17;64.17
7940;BME280;4015;48.888;9.226;2023-10-09T11:09:25;161157.50;;;23.51;62.65
7940;BME280;4015;48.888;9.226;2023-10-09T11:12:04;161252.81;;;23.89;63.34
7940;BME280;4015;48.888;9.226;2023-10-09T11:14:46;161355.75;;;24.30;61.30
7940;BME280;4015;48.888;9.226;2023-10-09T11:17:35;161506.47;;;24.89;61.69
7940;BME280;4015;48.888;9.226;2023-10-09T11:20:04;161521.94;;;24.95;60.06
7940;BME280;4015;48.888;9.226;2023-10-09T11:22:50;161426.66;;;24.58;61.78
7940;BME280;4015;48.888;9.226;2023-10-09T11:25:38;161286.25;;;24.02;63.39
7940;BME280;4015;48.888;9.226;2023-10-09T11:28:22;161162.66;;;23.53;63.83
7940;BME280;4015;48.888;9.226;2023-10-09T11:31:20;161100.88;;;23.29;63.12
7940;BME280;4015;48.888;9.226;2023-10-09T11:33:49;160955.44;;;22.71;66.49
7940;BME280;4015;48.888;9.226;2023-10-09T11:36:16;160968.31;;;22.76;67.14
7940;BME280;4015;48.888;9.226;2023-10-09T11:38:42;160842.28;;;22.26;69.95
7940;BME280;4015;48.888;9.226;2023-10-09T11:41:15;160717.47;;;21.77;71.17
7940;BME280;4015;48.888;9.226;2023-10-09T11:43:53;160734.19;;;21.84;70.10
7940;BME280;4015;48.888;9.226;2023-10-09T11:46:20;160759.94;;;21.94;69.93
7940;BME280;4015;48.888;9.226;2023-10-09T11:49:05;160781.78;;;22.02;69.27
7940;BME280;4015;48.888;9.226;2023-10-09T11:51:42;160815.25;;;22.16;69.54
7940;BME280;4015;48.888;9.226;2023-10-09T11:54:31;160902.72;;;22.50;67.98
7940;BME280;4015;48.888;9.226;2023-10-09T11:56:58;160893.72;;;22.47;70.39
7940;BME280;4015;48.888;9.226;2023-10-09T11:59:29;160924.56;;;22.59;67.21
7940;BME280;4015;48.888;9.226;2023-10-09T12:02:07;160952.88;;;22.70;65.65
7940;BME280;4015;48.888;9.226;2023-10-09T12:04:39;160951.59;;;22.70;64.28
7940;BME280;4015;48.888;9.226;2023-10-09T12:07:10;160964.44;;;22.75;63.03
7940;BME280;4015;48.888;9.226;2023-10-09T12:09:37;161008.22;;;22.92;62.06
7940;BME280;4015;48.888;9.226;2023-10-09T12:12:07;161035.25;;;23.03;58.07
7940;BME280;4015;48.888;9.226;2023-10-09T12:14:33;161094.47;;;23.26;55.56
7940;BME280;4015;48.888;9.226;2023-10-09T12:17:05;161068.69;;;23.16;54.73
7940;BME280;4015;48.888;9.226;2023-10-09T12:19:36;161103.44;;;23.30;57.99
7940;BME280;4015;48.888;9.226;2023-10-09T12:22:03;161157.50;;;23.51;58.28
7940;BME280;4015;48.888;9.226;2023-10-09T12:24:33;161243.78;;;23.85;59.92
7940;BME280;4015;48.888;9.226;2023-10-09T12:27:00;161339.03;;;24.23;58.82
7940;BME280;4015;48.888;9.226;2023-10-09T12:29:25;161444.66;;;24.65;60.36
7940;BME280;4015;48.888;9.226;2023-10-09T12:31:58;161457.50;;;24.70;57.39
7940;BME280;4015;48.888;9.226;2023-10-09T12:34:27;161498.72;;;24.86;58.10
7940;BME280;4015;48.888;9.226;2023-10-09T12:36:57;161569.63;;;25.14;57.79
7940;BME280;4015;48.888;9.226;2023-10-09T12:39:28;161664.94;;;25.52;57.03
7940;BME280;4015;48.888;9.226;2023-10-09T12:42:01;161689.41;;;25.62;57.82
7940;BME280;4015;48.888;9.226;2023-10-09T12:44:33;161721.66;;;25.74;56.73
7940;BME280;4015;48.888;9.226;2023-10-09T12:47:07;161708.72;;;25.69;58.57
7940;BME280;4015;48.888;9.226;2023-10-09T12:49:33;161751.28;;;25.86;59.47
7940;BME280;4015;48.888;9.226;2023-10-09T12:51:58;161703.56;;;25.67;56.55
7940;BME280;4015;48.888;9.226;2023-10-09T12:54:27;161596.66;;;25.25;59.80
7940;BME280;4015;48.888;9.226;2023-10-09T12:56:54;161501.28;;;24.87;59.13
7940;BME280;4015;48.888;9.226;2023-10-09T12:59:19;161547.72;;;25.06;60.97
7940;BME280;4015;48.888;9.226;2023-10-09T13:01:46;161577.34;;;25.17;59.81
7940;BME280;4015;48.888;9.226;2023-10-09T13:04:17;161719.09;;;25.73;60.11
7940;BME280;4015;48.888;9.226;2023-10-09T13:06:44;162153.50;;;27.45;50.77
7940;BME280;4015;48.888;9.226;2023-10-09T13:09:15;162672.22;;;29.50;41.57
7940;BME280;4015;48.888;9.226;2023-10-09T13:11:41;163236.63;;;31.73;39.41
7940;BME280;4015;48.888;9.226;2023-10-09T13:14:08;163563.69;;;33.01;38.12
7940;BME280;4015;48.888;9.226;2023-10-09T13:16:43;163709.78;;;33.59;35.93
7940;BME280;4015;48.888;9.226;2023-10-09T13:19:08;163952.94;;;34.55;36.09
7940;BME280;4015;48.888;9.226;2023-10-09T13:21:38;164119.84;;;35.21;34.18
7940;BME280;4015;48.888;9.226;2023-10-09T13:24:06;164025.38;;;34.83;36.79
7940;BME280;4015;48.888;9.226;2023-10-09T13:26:38;164121.13;;;35.21;32.25
7940;BME280;4015;48.888;9.226;2023-10-09T13:29:04;164070.69;;;35.01;34.58
7940;BME280;4015;48.888;9.226;2023-10-09T13:31:34;164180.66;;;35.45;32.90
7940;BME280;4015;48.888;9.226;2023-10-09T13:34:04;164062.91;;;34.98;34.86
7940;BME280;4015;48.888;9.226;2023-10-09T13:36:32;164251.81;;;35.73;29.79
7940;BME280;4015;48.888;9.226;2023-10-09T13:39:06;164101.69;;;35.13;29.87
7940;BME280;4015;48.888;9.226;2023-10-09T13:41:54;164170.28;;;35.40;32.51
7940;BME280;4015;48.888;9.226;2023-10-09T13:44:32;164101.69;;;35.13;31.67
7940;BME280;4015;48.888;9.226;2023-10-09T13:47:00;164009.84;;;34.77;30.17
7940;BME280;4015;48.888;9.226;2023-10-09T13:49:27;164148.25;;;35.32;28.01
7940;BME280;4015;48.888;9.226;2023-10-09T13:51:55;164154.75;;;35.34;28.36
7940;BME280;4015;48.888;9.226;2023-10-09T13:54:22;163884.34;;;34.28;29.77
7940;BME280;4015;48.888;9.226;2023-10-09T13:57:05;163544.31;;;32.94;27.79
7940;BME280;4015;48.888;9.226;2023-10-09T13:59:31;163263.81;;;31.83;28.77
7940;BME280;4015;48.888;9.226;2023-10-09T14:01:56;163393.03;;;32.34;32.38
7940;BME280;4015;48.888;9.226;2023-10-09T14:04:23;163527.44;;;32.87;30.73
7940;BME280;4015;48.888;9.226;2023-10-09T14:06:50;163495.09;;;32.74;31.14
7940;BME280;4015;48.888;9.226;2023-10-09T14:09:27;163144.88;;;31.36;34.72
7940;BME280;4015;48.888;9.226;2023-10-09T14:11:55;162891.75;;;30.37;33.15
7940;BME280;4015;48.888;9.226;2023-10-09T14:14:38;162648.97;;;29.41;32.81
7940;BME280;4015;48.888;9.226;2023-10-09T14:17:08;162450.25;;;28.62;34.14
7940;BME280;4015;48.888;9.226;2023-10-09T14:19:57;162285.06;;;27.97;34.10